Time;durP1;ratioP1;P1;durP2;ratioP2;P2;SDS_P1;SDS_P2;PMS_P1;PMS_P2;Temp;Humidity;BMP_temperature;BMP_pressure;BME280_temperature;BME280_humidity;BME280_pressure;Samples;Min_cycle;Max_cycle;Signal;HPM_P1;HPM_P2
2023/12/26 00:01:10;;;;;;;1.30;1.20;;;;;;;;;;5015960;28;20739;-68
2023/12/26 00:03:36;;;;;;;1.38;1.27;;;;;;;;;;5015658;28;20408;-68
2023/12/26 00:06:02;;;;;;;1.33;1.20;;;;;;;;;;5016199;28;20389;-68
2023/12/26 00:08:28;;;;;;;1.63;1.20;;;;;;;;;;5018059;28;20447;-68
2023/12/26 00:10:54;;;;;;;1.75;1.08;;;;;;;;;;4999629;28;20380;-68
2023/12/26 00:13:20;;;;;;;1.30;1.20;;;;;;;;;;5017954;28;20759;-68
2023/12/26 00:15:46;;;;;;;1.52;1.20;;;;;;;;;;5001126;28;20388;-67
2023/12/26 00:18:12;;;;;;;1.45;1.30;;;;;;;;;;5002458;28;20397;-68
2023/12/26 00:20:42;;;;;;;1.67;0.93;;;;;;;;;;5016373;28;20439;-68
2023/12/26 00:23:08;;;;;;;1.10;1.02;;;;;;;;;;5017466;28;20407;-69
2023/12/26 00:25:34;;;;;;;1.37;1.10;;;;;;;;;;5016906;28;20561;-68
2023/12/26 00:28:00;;;;;;;1.27;1.17;;;;;;;;;;5016141;28;20385;-69
2023/12/26 00:30:26;;;;;;;1.13;0.90;;;;;;;;;;5016135;28;20392;-68
2023/12/26 00:32:53;;;;;;;1.60;1.07;;;;;;;;;;5025116;28;20384;-67
2023/12/26 00:35:18;;;;;;;1.42;1.00;;;;;;;;;;5036684;28;20393;-69
2023/12/26 00:37:44;;;;;;;1.87;1.10;;;;;;;;;;5036104;28;20529;-69
2023/12/26 00:40:12;;;;;;;1.48;1.25;;;;;;;;;;5018537;28;20443;-69
2023/12/26 00:42:38;;;;;;;1.20;1.10;;;;;;;;;;5037268;28;20419;-68
2023/12/26 00:45:05;;;;;;;1.43;1.20;;;;;;;;;;5035886;28;20448;-68
2023/12/26 00:47:31;;;;;;;1.80;1.02;;;;;;;;;;5035552;28;20404;-68
2023/12/26 00:49:57;;;;;;;1.00;0.90;;;;;;;;;;5018062;28;20373;-68
2023/12/26 00:52:25;;;;;;;1.90;1.10;;;;;;;;;;5032252;28;20388;-67
2023/12/26 00:54:51;;;;;;;1.50;1.20;;;;;;;;;;5022670;28;20404;-68
2023/12/26 00:57:17;;;;;;;2.17;1.10;;;;;;;;;;5015272;28;20392;-69
2023/12/26 00:59:43;;;;;;;1.60;1.30;;;;;;;;;;5015551;28;20463;-68
2023/12/26 01:02:09;;;;;;;1.48;1.20;;;;;;;;;;5007942;28;20421;-68
2023/12/26 01:04:35;;;;;;;1.60;1.27;;;;;;;;;;5015559;28;20514;-68
2023/12/26 01:07:01;;;;;;;1.08;1.00;;;;;;;;;;4997952;28;20400;-66
2023/12/26 01:09:27;;;;;;;1.58;1.20;;;;;;;;;;5015883;28;20456;-68
2023/12/26 01:11:53;;;;;;;2.93;1.40;;;;;;;;;;5015339;28;20385;-68
2023/12/26 01:14:19;;;;;;;2.72;1.40;;;;;;;;;;5015127;28;20446;-67
2023/12/26 01:16:45;;;;;;;2.45;1.50;;;;;;;;;;4997908;28;20396;-68
2023/12/26 01:19:12;;;;;;;2.05;1.58;;;;;;;;;;4997201;28;20752;-67
2023/12/26 01:21:38;;;;;;;1.80;1.65;;;;;;;;;;5015297;28;20385;-67
2023/12/26 01:24:04;;;;;;;1.70;1.60;;;;;;;;;;4997733;28;20408;-67
2023/12/26 01:26:30;;;;;;;2.40;1.80;;;;;;;;;;4997112;28;20432;-67
2023/12/26 01:28:57;;;;;;;2.97;1.80;;;;;;;;;;5015501;28;20864;-67
2023/12/26 01:31:23;;;;;;;2.00;1.70;;;;;;;;;;5014717;28;20488;-67
2023/12/26 01:33:49;;;;;;;1.70;1.60;;;;;;;;;;4997921;28;20412;-67
2023/12/26 01:36:15;;;;;;;3.20;1.90;;;;;;;;;;4998239;28;20393;-68
2023/12/26 01:38:41;;;;;;;2.30;1.80;;;;;;;;;;5015030;28;20870;-68
2023/12/26 01:41:07;;;;;;;2.30;1.80;;;;;;;;;;5014737;28;20416;-69
2023/12/26 01:43:33;;;;;;;2.50;1.92;;;;;;;;;;5014679;28;20787;-67
2023/12/26 01:45:59;;;;;;;2.83;1.77;;;;;;;;;;4996628;28;20891;-68
2023/12/26 01:48:25;;;;;;;3.10;1.85;;;;;;;;;;5014657;28;20826;-67
2023/12/26 01:50:52;;;;;;;2.17;1.98;;;;;;;;;;5014868;28;20392;-68
2023/12/26 01:53:17;;;;;;;2.20;2.00;;;;;;;;;;5014621;28;20392;-67
2023/12/26 01:55:44;;;;;;;2.67;1.98;;;;;;;;;;5014403;28;20392;-67
2023/12/26 01:58:10;;;;;;;2.00;1.80;;;;;;;;;;5014394;28;20431;-68
2023/12/26 02:00:36;;;;;;;2.13;1.88;;;;;;;;;;4996647;28;20393;-67
2023/12/26 02:03:02;;;;;;;2.10;1.88;;;;;;;;;;5014316;28;20411;-66
2023/12/26 02:05:28;;;;;;;2.55;1.50;;;;;;;;;;5014667;28;20389;-67
2023/12/26 02:07:54;;;;;;;1.70;1.38;;;;;;;;;;5014338;28;20403;-67
2023/12/26 02:10:20;;;;;;;2.40;1.70;;;;;;;;;;4996541;28;20385;-67
2023/12/26 02:12:46;;;;;;;2.47;1.63;;;;;;;;;;5014618;28;20415;-68
2023/12/26 02:15:14;;;;;;;2.25;1.58;;;;;;;;;;5014821;28;20392;-67
2023/12/26 02:17:40;;;;;;;2.20;1.77;;;;;;;;;;4997001;28;20393;-67
2023/12/26 02:20:07;;;;;;;1.65;1.52;;;;;;;;;;4996856;28;20472;-67
2023/12/26 02:22:34;;;;;;;1.73;1.60;;;;;;;;;;5015592;28;20922;-67
2023/12/26 02:25:00;;;;;;;1.63;1.50;;;;;;;;;;5015702;28;20389;-67
2023/12/26 02:27:31;;;;;;;2.50;1.40;;;;;;;;;;5016730;28;20407;-67
2023/12/26 02:29:58;;;;;;;2.20;1.30;;;;;;;;;;5015800;28;20459;-67
2023/12/26 02:32:25;;;;;;;1.58;1.35;;;;;;;;;;5014636;28;20399;-68
2023/12/26 02:34:55;;;;;;;1.58;1.48;;;;;;;;;;5014404;28;20412;-68
2023/12/26 02:37:24;;;;;;;1.85;1.48;;;;;;;;;;5015476;28;20395;-68
2023/12/26 02:39:50;;;;;;;2.30;1.60;;;;;;;;;;5015664;28;20476;-68
2023/12/26 02:42:20;;;;;;;2.00;1.25;;;;;;;;;;4998510;28;20409;-67
2023/12/26 02:44:46;;;;;;;1.70;1.40;;;;;;;;;;5015064;28;20887;-68
2023/12/26 02:47:12;;;;;;;1.70;1.60;;;;;;;;;;5014508;28;20420;-68
2023/12/26 02:49:38;;;;;;;1.80;1.30;;;;;;;;;;4996991;28;20516;-68
2023/12/26 02:52:04;;;;;;;2.53;1.53;;;;;;;;;;5014665;28;20859;-67
2023/12/26 02:54:30;;;;;;;2.22;1.48;;;;;;;;;;5014836;28;20385;-68
2023/12/26 02:56:56;;;;;;;2.13;1.20;;;;;;;;;;5014490;28;20894;-67
2023/12/26 02:59:22;;;;;;;1.63;1.10;;;;;;;;;;5014713;28;20388;-67
2023/12/26 03:01:48;;;;;;;1.35;1.20;;;;;;;;;;5014192;28;20408;-68
2023/12/26 03:04:14;;;;;;;1.30;1.20;;;;;;;;;;5013266;28;20421;-67
2023/12/26 03:06:40;;;;;;;2.72;1.52;;;;;;;;;;5013413;28;20385;-67
2023/12/26 03:09:07;;;;;;;3.30;1.37;;;;;;;;;;5013275;28;20380;-68
2023/12/26 03:11:33;;;;;;;2.72;1.40;;;;;;;;;;5013492;28;20389;-67
2023/12/26 03:13:59;;;;;;;2.13;1.17;;;;;;;;;;5013266;28;20405;-67
2023/12/26 03:16:25;;;;;;;2.05;1.08;;;;;;;;;;5013424;28;20416;-67
2023/12/26 03:18:51;;;;;;;2.33;1.40;;;;;;;;;;4995915;28;20423;-67
2023/12/26 03:21:17;;;;;;;1.60;1.10;;;;;;;;;;5013705;28;20392;-67
2023/12/26 03:23:43;;;;;;;1.95;1.30;;;;;;;;;;4995372;28;20405;-67
2023/12/26 03:26:09;;;;;;;1.55;1.35;;;;;;;;;;4995163;28;20946;-67
2023/12/26 03:28:35;;;;;;;1.45;1.33;;;;;;;;;;5012815;28;20725;-67
2023/12/26 03:31:04;;;;;;;1.60;1.30;;;;;;;;;;4995528;28;20442;-67
2023/12/26 03:33:30;;;;;;;1.30;1.20;;;;;;;;;;5015789;28;20392;-67
2023/12/26 03:35:56;;;;;;;1.60;1.33;;;;;;;;;;5016755;28;20385;-67
2023/12/26 03:38:22;;;;;;;1.60;1.30;;;;;;;;;;4998645;28;20393;-67
2023/12/26 03:40:48;;;;;;;1.60;1.30;;;;;;;;;;5015810;28;20385;-67
2023/12/26 03:43:16;;;;;;;1.77;1.38;;;;;;;;;;5015833;28;20419;-67
2023/12/26 03:45:42;;;;;;;1.80;1.10;;;;;;;;;;5015982;28;20385;-67
2023/12/26 03:48:08;;;;;;;1.55;1.15;;;;;;;;;;5016260;28;20404;-67
2023/12/26 03:50:34;;;;;;;1.90;1.20;;;;;;;;;;4998393;28;20863;-67
2023/12/26 03:53:00;;;;;;;1.40;1.10;;;;;;;;;;5015808;28;20412;-67
2023/12/26 03:55:26;;;;;;;1.50;1.27;;;;;;;;;;5015843;28;20385;-66
2023/12/26 03:57:52;;;;;;;2.90;1.30;;;;;;;;;;4998033;28;20395;-67
2023/12/26 04:00:18;;;;;;;1.50;1.20;;;;;;;;;;5015436;28;20439;-68
2023/12/26 04:02:44;;;;;;;1.90;1.42;;;;;;;;;;4997749;28;20759;-67
2023/12/26 04:05:10;;;;;;;2.65;1.40;;;;;;;;;;4997684;28;20475;-67
2023/12/26 04:07:37;;;;;;;2.60;1.60;;;;;;;;;;5015865;28;20439;-67
2023/12/26 04:10:03;;;;;;;1.95;1.60;;;;;;;;;;5016145;28;20373;-67
2023/12/26 04:12:29;;;;;;;1.80;1.60;;;;;;;;;;5016148;28;20393;-69
2023/12/26 04:14:55;;;;;;;2.00;1.73;;;;;;;;;;5016248;28;20382;-68
2023/12/26 04:17:21;;;;;;;2.15;1.90;;;;;;;;;;4998178;28;20392;-67
2023/12/26 04:19:48;;;;;;;2.80;2.00;;;;;;;;;;4999136;28;20409;-67
2023/12/26 04:22:14;;;;;;;2.58;2.10;;;;;;;;;;5028719;28;20399;-67
2023/12/26 04:24:40;;;;;;;2.70;2.10;;;;;;;;;;5031565;28;20412;-67
2023/12/26 04:27:06;;;;;;;2.10;1.90;;;;;;;;;;5025460;28;20380;-67
2023/12/26 04:29:32;;;;;;;2.58;2.10;;;;;;;;;;5005643;28;20403;-67
2023/12/26 04:31:58;;;;;;;2.50;2.10;;;;;;;;;;5031652;28;20377;-68
2023/12/26 04:34:25;;;;;;;3.53;2.03;;;;;;;;;;5025985;28;20826;-67
2023/12/26 04:36:51;;;;;;;2.30;2.00;;;;;;;;;;5015275;28;20391;-67
2023/12/26 04:39:17;;;;;;;3.72;2.20;;;;;;;;;;4997193;28;20475;-67
2023/12/26 04:41:43;;;;;;;2.97;1.90;;;;;;;;;;5014341;28;20385;-68
2023/12/26 04:44:09;;;;;;;2.80;2.00;;;;;;;;;;5015005;28;20469;-68
2023/12/26 04:46:35;;;;;;;2.85;2.05;;;;;;;;;;4997275;28;20420;-67
2023/12/26 04:49:02;;;;;;;2.08;1.77;;;;;;;;;;4996711;28;20408;-66
2023/12/26 04:51:29;;;;;;;2.13;1.77;;;;;;;;;;5014613;28;20416;-67
2023/12/26 04:53:55;;;;;;;2.83;1.60;;;;;;;;;;5014844;28;20387;-67
2023/12/26 04:56:21;;;;;;;3.00;1.50;;;;;;;;;;5014602;28;20392;-67
2023/12/26 04:58:48;;;;;;;2.63;1.55;;;;;;;;;;5014431;28;20882;-67
2023/12/26 05:01:14;;;;;;;4.60;1.50;;;;;;;;;;5014696;28;20472;-67
2023/12/26 05:03:40;;;;;;;1.50;1.40;;;;;;;;;;5015295;28;20876;-69
2023/12/26 05:06:06;;;;;;;2.25;1.33;;;;;;;;;;4997329;28;20377;-67
2023/12/26 05:08:33;;;;;;;6.20;1.40;;;;;;;;;;5015024;28;20385;-67
2023/12/26 05:10:58;;;;;;;1.92;1.40;;;;;;;;;;5014793;28;20391;-68
2023/12/26 05:13:24;;;;;;;2.20;1.25;;;;;;;;;;5014534;28;20408;-67
2023/12/26 05:15:50;;;;;;;2.37;1.60;;;;;;;;;;5014470;28;20381;-68
2023/12/26 05:18:16;;;;;;;2.75;1.50;;;;;;;;;;4996623;28;20381;-67
2023/12/26 05:20:42;;;;;;;2.08;1.52;;;;;;;;;;5014203;28;20759;-67
2023/12/26 05:23:09;;;;;;;3.75;1.65;;;;;;;;;;4996805;28;20416;-67
2023/12/26 05:25:35;;;;;;;4.07;1.58;;;;;;;;;;4996550;28;20389;-67
2023/12/26 05:28:01;;;;;;;2.15;1.60;;;;;;;;;;5013928;28;20396;-67
2023/12/26 05:30:26;;;;;;;3.25;1.83;;;;;;;;;;5013968;28;20389;-68
2023/12/26 05:32:52;;;;;;;4.07;1.83;;;;;;;;;;4996580;28;20815;-67
2023/12/26 05:35:18;;;;;;;4.38;2.00;;;;;;;;;;5014606;28;20858;-67
2023/12/26 05:37:45;;;;;;;3.15;1.60;;;;;;;;;;4996230;28;20384;-67
2023/12/26 05:40:11;;;;;;;4.53;1.98;;;;;;;;;;5013846;28;20388;-67
2023/12/26 05:42:37;;;;;;;3.78;1.80;;;;;;;;;;5014141;28;20408;-68
2023/12/26 05:45:03;;;;;;;3.70;1.85;;;;;;;;;;5013261;28;20392;-68
2023/12/26 05:47:29;;;;;;;5.03;1.77;;;;;;;;;;5013620;28;20465;-68
2023/12/26 05:49:58;;;;;;;4.60;1.90;;;;;;;;;;5013159;28;20504;-68
2023/12/26 05:52:25;;;;;;;2.90;1.60;;;;;;;;;;5013558;28;20381;-68
2023/12/26 05:54:51;;;;;;;3.75;2.00;;;;;;;;;;5012748;28;20384;-68
2023/12/26 05:57:17;;;;;;;5.78;2.10;;;;;;;;;;5013619;28;20392;-68
2023/12/26 05:59:43;;;;;;;4.57;2.00;;;;;;;;;;5013170;28;20767;-67
2023/12/26 06:02:09;;;;;;;4.63;2.08;;;;;;;;;;5013151;28;20393;-68
2023/12/26 06:04:35;;;;;;;3.05;1.77;;;;;;;;;;5013288;28;20396;-67
2023/12/26 06:07:01;;;;;;;3.42;1.80;;;;;;;;;;5013661;28;20467;-68
2023/12/26 06:09:27;;;;;;;4.50;2.10;;;;;;;;;;5018827;28;20389;-68
2023/12/26 06:11:53;;;;;;;6.07;2.30;;;;;;;;;;5008017;28;20381;-67
2023/12/26 06:14:20;;;;;;;6.43;2.40;;;;;;;;;;5024296;28;20404;-67
2023/12/26 06:16:46;;;;;;;6.05;2.35;;;;;;;;;;5023156;28;20418;-68
2023/12/26 06:19:11;;;;;;;7.15;2.13;;;;;;;;;;4997508;28;20388;-68
2023/12/26 06:21:38;;;;;;;11.40;2.53;;;;;;;;;;5013396;28;20388;-68
2023/12/26 06:24:04;;;;;;;5.10;2.10;;;;;;;;;;5012696;28;20929;-67
2023/12/26 06:26:30;;;;;;;9.50;2.17;;;;;;;;;;4995182;28;20392;-68
2023/12/26 06:28:56;;;;;;;5.75;2.08;;;;;;;;;;4995213;28;20372;-68
2023/12/26 06:31:22;;;;;;;7.75;2.17;;;;;;;;;;5012833;28;20381;-69
2023/12/26 06:33:48;;;;;;;5.18;2.08;;;;;;;;;;5012965;28;20396;-68
2023/12/26 06:36:14;;;;;;;4.47;2.05;;;;;;;;;;4994769;28;20484;-68
2023/12/26 06:38:40;;;;;;;4.88;2.03;;;;;;;;;;4995499;28;20397;-68
2023/12/26 06:41:06;;;;;;;7.50;1.90;;;;;;;;;;4994897;28;20377;-68
2023/12/26 06:43:32;;;;;;;5.13;2.05;;;;;;;;;;5012694;28;20405;-68
2023/12/26 06:45:58;;;;;;;6.43;2.10;;;;;;;;;;5013225;28;20748;-68
2023/12/26 06:48:24;;;;;;;8.40;2.25;;;;;;;;;;4995310;28;20455;-68
2023/12/26 06:50:50;;;;;;;8.10;2.67;;;;;;;;;;4994875;28;20412;-68
2023/12/26 06:53:16;;;;;;;4.32;2.15;;;;;;;;;;5012658;28;20393;-68
2023/12/26 06:55:42;;;;;;;6.20;2.33;;;;;;;;;;5012647;28;20447;-68
2023/12/26 06:58:08;;;;;;;5.82;2.33;;;;;;;;;;5012899;28;20393;-67
2023/12/26 07:00:34;;;;;;;7.18;2.42;;;;;;;;;;5012978;28;20416;-67
2023/12/26 07:03:00;;;;;;;5.88;2.45;;;;;;;;;;5012906;28;20965;-67
2023/12/26 07:05:26;;;;;;;7.18;2.63;;;;;;;;;;4996573;28;20460;-68
2023/12/26 07:07:52;;;;;;;8.40;2.53;;;;;;;;;;4999328;28;20451;-67
2023/12/26 07:10:18;;;;;;;9.53;2.83;;;;;;;;;;4998939;28;20501;-67
2023/12/26 07:12:44;;;;;;;9.52;2.38;;;;;;;;;;4998438;28;20895;-67
2023/12/26 07:15:10;;;;;;;8.23;2.20;;;;;;;;;;5016086;28;20396;-67
2023/12/26 07:17:36;;;;;;;7.15;2.15;;;;;;;;;;5016671;28;20388;-68
2023/12/26 07:20:02;;;;;;;8.07;2.25;;;;;;;;;;4998614;28;20897;-68
2023/12/26 07:22:28;;;;;;;8.27;2.13;;;;;;;;;;4998616;28;20409;-68
2023/12/26 07:24:54;;;;;;;4.65;1.92;;;;;;;;;;5016035;28;20755;-67
2023/12/26 07:27:20;;;;;;;6.60;1.60;;;;;;;;;;4998592;28;20397;-68
2023/12/26 07:29:46;;;;;;;7.10;2.00;;;;;;;;;;5016382;28;20439;-67
2023/12/26 07:32:12;;;;;;;8.40;2.10;;;;;;;;;;4998321;28;20460;-68
2023/12/26 07:34:43;;;;;;;5.38;1.92;;;;;;;;;;4998485;28;20385;-68
2023/12/26 07:37:09;;;;;;;6.43;2.10;;;;;;;;;;5016352;28;20384;-67
2023/12/26 07:39:35;;;;;;;6.07;2.10;;;;;;;;;;5016119;28;20420;-68
2023/12/26 07:42:00;;;;;;;8.70;2.15;;;;;;;;;;5006274;28;20393;-67
2023/12/26 07:44:27;;;;;;;6.00;1.90;;;;;;;;;;5020412;28;20413;-68
2023/12/26 07:46:53;;;;;;;7.22;2.10;;;;;;;;;;5036815;28;20420;-68
2023/12/26 07:49:18;;;;;;;5.90;2.10;;;;;;;;;;5029693;28;20384;-68
2023/12/26 07:51:45;;;;;;;10.88;2.97;;;;;;;;;;5015321;28;20385;-68
2023/12/26 07:54:11;;;;;;;7.30;2.03;;;;;;;;;;5015437;28;20396;-68
2023/12/26 07:56:38;;;;;;;8.32;3.15;;;;;;;;;;5015596;28;20393;-68
2023/12/26 07:59:04;;;;;;;7.43;2.30;;;;;;;;;;4997695;28;20388;-68
2023/12/26 08:01:31;;;;;;;8.35;2.22;;;;;;;;;;4997817;28;20388;-68
2023/12/26 08:03:57;;;;;;;10.60;1.83;;;;;;;;;;4997398;28;20409;-68
2023/12/26 08:06:27;;;;;;;6.43;2.00;;;;;;;;;;5015190;28;20874;-68
2023/12/26 08:08:53;;;;;;;7.15;2.10;;;;;;;;;;4997492;28;20385;-67
2023/12/26 08:11:20;;;;;;;6.70;1.88;;;;;;;;;;5015259;28;20435;-68
2023/12/26 08:13:46;;;;;;;8.00;2.30;;;;;;;;;;5014948;28;20847;-67
2023/12/26 08:16:12;;;;;;;6.93;2.00;;;;;;;;;;5014594;28;20393;-67
2023/12/26 08:18:38;;;;;;;9.18;2.05;;;;;;;;;;5014568;28;20464;-68
2023/12/26 08:21:04;;;;;;;8.77;2.27;;;;;;;;;;4997342;28;20393;-68
2023/12/26 08:23:30;;;;;;;9.00;2.53;;;;;;;;;;5014774;28;20436;-67
2023/12/26 08:25:56;;;;;;;9.23;2.40;;;;;;;;;;5014994;28;20373;-68
2023/12/26 08:28:22;;;;;;;8.57;2.90;;;;;;;;;;5014918;28;20757;-68
2023/12/26 08:30:48;;;;;;;10.57;2.53;;;;;;;;;;5015450;28;20743;-68
2023/12/26 08:33:17;;;;;;;9.48;2.60;;;;;;;;;;5014648;28;20391;-68
2023/12/26 08:35:43;;;;;;;9.85;2.72;;;;;;;;;;5014998;28;20430;-69
2023/12/26 08:38:09;;;;;;;10.18;3.65;;;;;;;;;;5014920;28;20389;-68
2023/12/26 08:40:35;;;;;;;9.23;3.20;;;;;;;;;;5015649;28;20413;-68
2023/12/26 08:43:01;;;;;;;8.25;2.55;;;;;;;;;;5015935;28;20748;-68
2023/12/26 08:45:27;;;;;;;11.02;2.65;;;;;;;;;;4998249;28;20389;-68
2023/12/26 08:47:53;;;;;;;9.38;2.47;;;;;;;;;;5015334;28;20404;-69
2023/12/26 08:50:20;;;;;;;7.22;2.35;;;;;;;;;;5014977;28;20843;-68
2023/12/26 08:52:46;;;;;;;10.10;2.70;;;;;;;;;;5015489;28;20868;-68
2023/12/26 08:55:13;;;;;;;5.57;2.30;;;;;;;;;;5015769;28;20385;-68
2023/12/26 08:57:40;;;;;;;8.27;2.83;;;;;;;;;;5014992;28;20484;-68
2023/12/26 09:00:06;;;;;;;8.98;2.63;;;;;;;;;;4998559;28;20446;-68
2023/12/26 09:02:32;;;;;;;10.45;2.50;;;;;;;;;;5015880;28;20436;-68
2023/12/26 09:04:59;;;;;;;10.77;2.70;;;;;;;;;;5015769;28;20730;-68
2023/12/26 09:07:25;;;;;;;6.95;2.03;;;;;;;;;;4997481;28;20381;-68
2023/12/26 09:09:51;;;;;;;7.38;2.20;;;;;;;;;;5016045;28;20720;-68
2023/12/26 09:12:17;;;;;;;7.15;2.00;;;;;;;;;;5015685;28;20423;-68
2023/12/26 09:14:43;;;;;;;7.57;2.85;;;;;;;;;;5015977;28;20377;-68
2023/12/26 09:17:09;;;;;;;6.43;2.83;;;;;;;;;;4997963;28;20747;-68
2023/12/26 09:19:35;;;;;;;8.82;2.20;;;;;;;;;;5016054;28;20403;-68
2023/12/26 09:22:01;;;;;;;7.25;2.40;;;;;;;;;;5017238;28;20824;-68
2023/12/26 09:24:27;;;;;;;9.13;3.25;;;;;;;;;;5015437;28;20416;-68
2023/12/26 09:26:53;;;;;;;10.18;2.78;;;;;;;;;;5016064;28;20953;-69
2023/12/26 09:29:18;;;;;;;13.15;2.63;;;;;;;;;;5015867;28;20444;-68
2023/12/26 09:31:44;;;;;;;8.45;2.20;;;;;;;;;;5013975;28;20385;-68
2023/12/26 09:34:10;;;;;;;7.43;2.70;;;;;;;;;;5013682;28;20389;-68
2023/12/26 09:36:36;;;;;;;11.30;2.60;;;;;;;;;;4996174;28;20469;-68
2023/12/26 09:39:02;;;;;;;7.77;2.50;;;;;;;;;;5013729;28;20398;-68
2023/12/26 09:41:28;;;;;;;10.90;2.50;;;;;;;;;;5014034;28;20446;-68
2023/12/26 09:43:54;;;;;;;9.90;2.30;;;;;;;;;;5013457;28;20405;-68
2023/12/26 09:46:20;;;;;;;9.75;2.30;;;;;;;;;;5014188;28;20396;-68
2023/12/26 09:48:47;;;;;;;10.05;2.40;;;;;;;;;;5014065;28;20389;-68
2023/12/26 09:51:17;;;;;;;7.55;2.40;;;;;;;;;;4995935;28;20404;-68
2023/12/26 09:53:45;;;;;;;6.95;2.47;;;;;;;;;;5013983;28;20377;-68
2023/12/26 09:56:11;;;;;;;8.93;2.55;;;;;;;;;;5013912;28;20895;-68
2023/12/26 09:58:43;;;;;;;11.52;2.28;;;;;;;;;;5013519;28;20392;-68
2023/12/26 10:01:10;;;;;;;11.82;2.88;;;;;;;;;;5014011;28;20475;-67
2023/12/26 10:03:36;;;;;;;8.27;2.47;;;;;;;;;;4995769;28;20788;-68
2023/12/26 10:06:02;;;;;;;10.47;2.77;;;;;;;;;;5014909;28;20456;-67
2023/12/26 10:08:28;;;;;;;11.40;2.88;;;;;;;;;;4996921;28;20385;-67
2023/12/26 10:10:54;;;;;;;8.87;2.77;;;;;;;;;;5013492;28;20388;-67
2023/12/26 10:13:20;;;;;;;7.65;2.45;;;;;;;;;;4996136;28;20429;-68
2023/12/26 10:15:47;;;;;;;10.60;2.55;;;;;;;;;;4996117;28;20910;-67
2023/12/26 10:18:13;;;;;;;11.02;2.90;;;;;;;;;;5013113;28;20418;-68
2023/12/26 10:20:39;;;;;;;10.40;3.45;;;;;;;;;;5013705;28;20395;-69
2023/12/26 10:23:05;;;;;;;19.00;5.88;;;;;;;;;;4995220;28;20915;-67
2023/12/26 10:25:31;;;;;;;9.98;2.90;;;;;;;;;;4996047;28;20373;-68
2023/12/26 10:27:58;;;;;;;9.80;2.70;;;;;;;;;;5013757;28;20391;-68
2023/12/26 10:30:25;;;;;;;13.82;3.97;;;;;;;;;;5015159;28;20518;-67
2023/12/26 10:33:01;;;;;;;15.50;3.40;;;;;;;;;;5015277;28;20385;-68
2023/12/26 10:35:27;;;;;;;9.82;3.42;;;;;;;;;;5016226;28;20381;-68
2023/12/26 10:37:54;;;;;;;10.75;3.92;;;;;;;;;;5016207;28;20385;-68
2023/12/26 10:40:20;;;;;;;12.07;2.70;;;;;;;;;;5018501;28;20385;-68
2023/12/26 10:42:49;;;;;;;10.90;3.97;;;;;;;;;;5021072;28;20447;-67
2023/12/26 10:45:15;;;;;;;11.30;3.28;;;;;;;;;;5004814;28;20426;-67
2023/12/26 10:47:46;;;;;;;7.75;2.67;;;;;;;;;;5034944;28;20405;-69
2023/12/26 10:50:13;;;;;;;14.15;2.70;;;;;;;;;;5018884;28;20428;-69
2023/12/26 10:52:41;;;;;;;9.95;2.70;;;;;;;;;;5036355;28;20389;-68
2023/12/26 10:55:08;;;;;;;10.88;3.78;;;;;;;;;;5032086;28;20852;-68
2023/12/26 10:57:34;;;;;;;11.43;3.63;;;;;;;;;;5020086;28;20388;-68
2023/12/26 11:00:00;;;;;;;11.95;2.80;;;;;;;;;;5019866;28;20870;-67
2023/12/26 11:02:26;;;;;;;9.98;2.83;;;;;;;;;;5021385;28;20397;-67
2023/12/26 11:04:53;;;;;;;11.20;3.40;;;;;;;;;;5021869;28;20384;-67
2023/12/26 11:07:20;;;;;;;12.63;3.60;;;;;;;;;;5020924;28;20510;-68
2023/12/26 11:09:46;;;;;;;10.15;2.90;;;;;;;;;;5020742;28;20392;-68
2023/12/26 11:12:12;;;;;;;10.88;2.72;;;;;;;;;;5002283;28;20389;-69
2023/12/26 11:14:38;;;;;;;9.43;2.78;;;;;;;;;;5021294;28;20388;-68
2023/12/26 11:17:05;;;;;;;15.32;3.47;;;;;;;;;;5020929;28;20385;-67
2023/12/26 11:19:31;;;;;;;13.23;2.85;;;;;;;;;;5018991;28;20392;-67
2023/12/26 11:21:57;;;;;;;9.82;2.70;;;;;;;;;;5019401;28;20381;-68
2023/12/26 11:24:23;;;;;;;10.32;2.92;;;;;;;;;;5019116;28;20736;-68
2023/12/26 11:26:50;;;;;;;9.10;2.70;;;;;;;;;;5019171;28;20455;-68
2023/12/26 11:29:16;;;;;;;10.52;3.45;;;;;;;;;;5018710;28;20831;-67
2023/12/26 11:31:42;;;;;;;9.73;2.67;;;;;;;;;;5018876;28;20377;-67
2023/12/26 11:34:09;;;;;;;11.75;2.88;;;;;;;;;;5018108;28;20755;-68
2023/12/26 11:36:35;;;;;;;12.60;3.17;;;;;;;;;;5020847;28;20450;-69
2023/12/26 11:39:01;;;;;;;10.27;2.70;;;;;;;;;;5021890;28;20389;-69
2023/12/26 11:41:27;;;;;;;10.20;2.97;;;;;;;;;;5020787;28;20391;-69
2023/12/26 11:43:56;;;;;;;9.80;3.13;;;;;;;;;;5001512;28;20401;-70
2023/12/26 11:46:22;;;;;;;12.57;3.08;;;;;;;;;;5002230;28;20443;-69
2023/12/26 11:48:48;;;;;;;10.95;3.67;;;;;;;;;;5016560;28;20396;-69
2023/12/26 11:51:14;;;;;;;11.53;2.77;;;;;;;;;;5018287;28;20389;-69
2023/12/26 11:53:43;;;;;;;10.10;2.58;;;;;;;;;;5035039;28;20919;-69
2023/12/26 11:56:09;;;;;;;9.43;2.73;;;;;;;;;;5032192;28;20380;-69
2023/12/26 11:58:35;;;;;;;9.00;2.70;;;;;;;;;;5028263;28;20393;-69
2023/12/26 12:01:01;;;;;;;10.20;3.15;;;;;;;;;;5031101;28;20385;-69
2023/12/26 12:03:27;;;;;;;9.17;2.90;;;;;;;;;;5016148;28;20420;-69
2023/12/26 12:06:13;;;;;;;8.43;2.75;;;;;;;;;;5029938;28;20381;-71
2023/12/26 12:08:59;;;;;;;9.25;2.92;;;;;;;;;;5023655;28;20452;-71
2023/12/26 12:11:25;;;;;;;10.30;2.83;;;;;;;;;;5028553;28;20849;-72
2023/12/26 12:13:51;;;;;;;10.80;3.10;;;;;;;;;;5026092;28;20420;-69
2023/12/26 12:16:24;;;;;;;12.20;2.70;;;;;;;;;;5009269;28;20851;-71
2023/12/26 12:19:03;;;;;;;7.50;2.80;;;;;;;;;;5031336;28;20578;-71
2023/12/26 12:21:39;;;;;;;9.93;3.00;;;;;;;;;;5012753;28;20389;-70
2023/12/26 12:24:05;;;;;;;11.05;2.33;;;;;;;;;;5030346;28;20408;-70
2023/12/26 12:26:49;;;;;;;11.07;3.00;;;;;;;;;;5026613;28;20384;-70
2023/12/26 12:29:15;;;;;;;10.70;2.60;;;;;;;;;;5036094;23;20451;-68
2023/12/26 12:31:41;;;;;;;8.63;2.50;;;;;;;;;;5017278;28;20389;-70
2023/12/26 12:34:13;;;;;;;7.63;2.70;;;;;;;;;;5017351;28;20393;-69
2023/12/26 12:36:40;;;;;;;9.50;2.70;;;;;;;;;;5019995;28;20401;-69
2023/12/26 12:39:06;;;;;;;10.98;3.15;;;;;;;;;;5024814;28;20476;-70
2023/12/26 12:41:34;;;;;;;10.27;2.90;;;;;;;;;;5021428;28;20413;-70
2023/12/26 12:44:00;;;;;;;7.72;2.53;;;;;;;;;;5015846;28;20843;-70
2023/12/26 12:46:27;;;;;;;10.80;3.05;;;;;;;;;;5016575;28;20388;-71
2023/12/26 12:48:53;;;;;;;8.77;2.70;;;;;;;;;;5015335;28;20438;-70
2023/12/26 12:51:19;;;;;;;10.05;3.22;;;;;;;;;;5013709;28;20373;-71
2023/12/26 12:53:44;;;;;;;12.57;3.10;;;;;;;;;;5013681;28;20464;-71
2023/12/26 12:56:10;;;;;;;10.00;3.15;;;;;;;;;;5013990;28;20809;-71
2023/12/26 12:58:36;;;;;;;9.43;2.88;;;;;;;;;;5014723;28;20381;-71
2023/12/26 13:01:02;;;;;;;13.48;3.35;;;;;;;;;;5013232;28;20887;-71
2023/12/26 13:03:28;;;;;;;9.80;2.65;;;;;;;;;;5014713;28;20752;-71
2023/12/26 13:05:54;;;;;;;9.00;2.83;;;;;;;;;;5014711;28;20487;-70
2023/12/26 13:08:20;;;;;;;10.82;2.85;;;;;;;;;;5013409;28;20500;-71
2023/12/26 13:10:46;;;;;;;7.80;2.80;;;;;;;;;;5014966;28;20396;-71
2023/12/26 13:13:12;;;;;;;9.52;2.90;;;;;;;;;;5014367;28;20755;-70
2023/12/26 13:15:38;;;;;;;8.73;2.67;;;;;;;;;;5014416;28;20424;-70
2023/12/26 13:18:04;;;;;;;14.10;3.50;;;;;;;;;;5014058;28;20407;-70
2023/12/26 13:20:30;;;;;;;8.63;2.72;;;;;;;;;;5012384;28;20432;-69
2023/12/26 13:22:56;;;;;;;10.80;2.75;;;;;;;;;;5013805;28;20412;-70
2023/12/26 13:25:22;;;;;;;8.68;2.95;;;;;;;;;;5014710;28;20381;-69
2023/12/26 13:27:48;;;;;;;10.20;2.80;;;;;;;;;;5014093;28;20917;-70
2023/12/26 13:30:21;;;;;;;9.93;2.97;;;;;;;;;;5014337;28;20429;-70
2023/12/26 13:32:47;;;;;;;10.43;2.73;;;;;;;;;;5014546;28;20483;-70
2023/12/26 13:35:13;;;;;;;13.75;3.17;;;;;;;;;;5013992;28;20882;-69
2023/12/26 13:37:39;;;;;;;11.63;3.10;;;;;;;;;;5014247;28;20393;-70
2023/12/26 13:40:05;;;;;;;12.43;2.83;;;;;;;;;;5014127;28;20888;-69
2023/12/26 13:42:32;;;;;;;23.67;10.23;;;;;;;;;;5012580;28;20751;-69
2023/12/26 13:44:58;;;;;;;13.00;2.90;;;;;;;;;;5014407;28;20377;-70
2023/12/26 13:47:24;;;;;;;9.20;2.90;;;;;;;;;;5012476;28;20955;-70
2023/12/26 13:49:50;;;;;;;12.75;4.40;;;;;;;;;;5013503;28;20391;-70
2023/12/26 13:52:16;;;;;;;12.48;4.28;;;;;;;;;;5012526;28;20381;-70
2023/12/26 13:54:42;;;;;;;21.83;9.70;;;;;;;;;;5013391;28;20462;-69
2023/12/26 13:57:08;;;;;;;11.57;3.55;;;;;;;;;;5013662;28;20385;-70
2023/12/26 13:59:34;;;;;;;19.08;6.22;;;;;;;;;;5013233;28;20393;-69
2023/12/26 14:01:59;;;;;;;22.33;10.03;;;;;;;;;;5013860;28;20535;-71
2023/12/26 14:04:25;;;;;;;11.95;3.72;;;;;;;;;;5014408;28;20405;-70
2023/12/26 14:06:52;;;;;;;45.92;25.80;;;;;;;;;;5013951;28;20377;-71
2023/12/26 14:09:17;;;;;;;55.47;35.40;;;;;;;;;;5014047;28;20393;-70
2023/12/26 14:11:43;;;;;;;42.08;25.05;;;;;;;;;;5016628;28;20833;-71
2023/12/26 14:14:09;;;;;;;26.23;14.88;;;;;;;;;;5015526;28;20380;-70
2023/12/26 14:16:35;;;;;;;26.85;13.55;;;;;;;;;;5015079;28;20799;-69
2023/12/26 14:19:02;;;;;;;28.40;15.95;;;;;;;;;;5027348;28;20420;-70
2023/12/26 14:21:28;;;;;;;37.55;20.77;;;;;;;;;;5026518;28;20446;-70
2023/12/26 14:23:53;;;;;;;12.70;4.10;;;;;;;;;;5025349;28;20443;-70
2023/12/26 14:26:19;;;;;;;15.48;7.22;;;;;;;;;;5029637;28;20463;-70
2023/12/26 14:28:45;;;;;;;11.32;3.50;;;;;;;;;;5022802;28;20385;-71
2023/12/26 14:31:11;;;;;;;29.52;12.75;;;;;;;;;;5030672;28;20381;-71
2023/12/26 14:33:37;;;;;;;14.25;4.95;;;;;;;;;;5026548;28;20396;-70